Huvudsida
METAR-TAF:

METAR-TAF

Flygplatser :

Jizan, Saudiarabien

latitud: 16-54N, longitud: 042-35E, höjd: 6 m

Aktuellt väderrapport

Denna rapport gjordes för 30 minuter sedan, klockan 19:00 UTC
Vind 4 kt från ost/nordost
Temperatur 31°C
Fuktighet 55%
Tryck 1009 hPa
Sikt 10 km eller mer
Få moln på en höjd av 3000 ft

METAR: OEGN 111900Z 07004KT 9999 FEW030 31/21 Q1009 NOSIG

Tid: 22:30 (19:30 UTC)

Väderprognos

Denna rapport gjordes för 8 timmar och 30 minuter sedan, klockan 11:00 UTC
Prognos gäller från 11 kl. 12 UTC till 12 kl. 18 UTC
Vind 15 kt från sydväst
Sikt 10 km eller mer
Få moln på en höjd av 4000 ft
Temporärt
från 11 kl. 12 UTC till 11 kl. 18 UTC
Sikt: 6000 m
Få moln på en höjd av 2500 ft, Cumulonimbus.
Spridda moln på en höjd av 3000 ft
åska, regn
Blir
från 11 kl. 18 UTC till 11 kl. 20 UTC
Vind 3 kt varierande vindriktning

TAF: OEGN 111100Z 1112/1218 23015KT 9999 FEW040 TEMPO 1112/1118 6000 TSRA FEW025CB SCT030 BECMG 1118/1120 VRB03KT

Aktuella väderrapporter och prognoser från 4000 flygplatser (METAR- och TAF-rapporter).

De tillgängliga stationerna syns som gula och röda prickar på kartan.

För musen över prickarna för att se namnen på stationerna.

Klicka sedan för att få väderrapporter och prognoser.

För att ändra kartan: Klicka på de gröna knapparna med ett svart kors på för att zooma in; den gröna knappen med ett streck på för att zooma ut; eller på de gröna pilarna för angränsande kartor.


METAR-TAF: